createdAt,value
2023-02-19T00:04:59.742Z,98584.38
2023-02-19T00:10:02.118Z,98577.73
2023-02-19T00:15:09.326Z,98580.58
2023-02-19T00:20:11.787Z,98584.90
2023-02-19T00:25:14.418Z,98583.31
2023-02-19T00:30:19.691Z,98583.94
2023-02-19T00:35:25.057Z,98585.02
2023-02-19T00:40:27.465Z,98574.20
2023-02-19T00:45:29.734Z,98579.33
2023-02-19T00:50:31.751Z,98580.17
2023-02-19T00:55:33.854Z,98580.88
2023-02-19T01:00:35.903Z,98579.89
2023-02-19T01:05:38.041Z,98570.67
2023-02-19T01:10:40.582Z,98565.24
2023-02-19T01:15:43.897Z,98560.08
2023-02-19T01:20:48.822Z,98562.94
2023-02-19T01:25:51.753Z,98558.09
2023-02-19T01:30:53.978Z,98548.06
2023-02-19T01:35:59.930Z,98539.38
2023-02-19T01:41:05.135Z,98528.32
2023-02-19T01:46:07.262Z,98528.25
2023-02-19T01:51:13.045Z,98519.01
2023-02-19T01:56:17.426Z,98511.67
2023-02-19T02:01:19.729Z,98511.27
2023-02-19T02:06:33.232Z,98508.70
2023-02-19T02:11:36.619Z,98502.23
2023-02-19T02:16:54.949Z,98499.94
2023-02-19T02:22:06.705Z,98499.31
2023-02-19T02:27:23.117Z,98489.02
2023-02-19T02:32:33.214Z,98480.06
2023-02-19T02:37:39.011Z,98479.41
2023-02-19T02:42:43.861Z,98474.30
2023-02-19T02:47:56.517Z,98463.09
2023-02-19T02:53:35.820Z,98445.08
2023-02-19T02:58:45.689Z,98448.29
2023-02-19T03:03:55.142Z,98441.08
2023-02-19T03:09:09.540Z,98435.84
2023-02-19T03:14:44.679Z,98436.98
2023-02-19T03:19:52.911Z,98437.05
2023-02-19T03:25:25.914Z,98446.65
2023-02-19T03:30:33.890Z,98447.20
2023-02-19T03:35:50.045Z,98445.02
2023-02-19T03:41:14.558Z,98450.48
2023-02-19T03:46:24.088Z,98447.11
2023-02-19T03:51:45.147Z,98442.65
2023-02-19T03:57:05.298Z,98438.15
2023-02-19T04:02:37.145Z,98427.36
2023-02-19T04:07:44.651Z,98415.95
2023-02-19T04:13:00.193Z,98415.86
2023-02-19T04:18:08.648Z,98414.48
2023-02-19T04:23:16.912Z,98402.84
2023-02-19T04:28:19.495Z,98402.84
2023-02-19T04:33:22.104Z,98398.42
2023-02-19T04:38:24.473Z,98389.56
2023-02-19T04:43:29.742Z,98373.20
2023-02-19T04:48:32.673Z,98357.98
2023-02-19T04:53:36.437Z,98342.98
2023-02-19T04:58:39.109Z,98342.69
2023-02-19T05:03:41.732Z,98328.11
2023-02-19T05:08:44.428Z,98316.11
2023-02-19T05:13:46.619Z,98317.29
2023-02-19T05:18:48.980Z,98315.75
2023-02-19T05:23:51.253Z,98312.35
2023-02-19T05:28:54.463Z,98303.07
2023-02-19T05:33:56.958Z,98305.74
2023-02-19T05:38:58.984Z,98312.73
2023-02-19T05:44:01.405Z,98314.89
2023-02-19T05:49:04.299Z,98323.38
2023-02-19T05:54:06.347Z,98342.27
2023-02-19T05:59:15.184Z,98344.95
2023-02-19T06:04:19.275Z,98344.13
2023-02-19T06:09:21.519Z,98331.05
2023-02-19T06:14:23.597Z,98328.27
2023-02-19T06:19:26.158Z,98322.77
2023-02-19T06:24:28.247Z,98324.95
2023-02-19T06:29:32.621Z,98329.35
2023-02-19T06:34:36.234Z,98322.08
2023-02-19T06:39:38.498Z,98326.86
2023-02-19T06:44:41.716Z,98323.67
2023-02-19T06:49:45.092Z,98320.59
2023-02-19T06:54:47.506Z,98322.36
2023-02-19T06:59:50.490Z,98323.27
2023-02-19T07:04:52.698Z,98315.00
2023-02-19T07:09:56.500Z,98312.60
2023-02-19T07:15:01.644Z,98311.60
2023-02-19T07:20:04.313Z,98309.25
2023-02-19T07:25:07.098Z,98309.80
2023-02-19T07:30:10.602Z,98303.00
2023-02-19T07:35:13.174Z,98297.80
2023-02-19T07:40:15.215Z,98280.98
2023-02-19T07:45:17.903Z,98274.55
2023-02-19T07:50:20.367Z,98263.45
2023-02-19T07:55:25.342Z,98265.13
2023-02-19T08:00:29.656Z,98265.56
2023-02-19T08:05:38.504Z,98266.65
2023-02-19T08:11:00.533Z,98263.77
2023-02-19T08:16:15.982Z,98266.75
2023-02-19T08:21:21.190Z,98272.54
2023-02-19T08:26:23.841Z,98275.67
2023-02-19T08:31:27.259Z,98277.30
2023-02-19T08:36:30.407Z,98286.65
2023-02-19T08:41:32.897Z,98296.16
2023-02-19T08:46:35.046Z,98299.09
2023-02-19T08:51:42.120Z,98303.80
2023-02-19T08:56:44.511Z,98300.10
2023-02-19T09:01:46.840Z,98304.88
2023-02-19T09:06:49.210Z,98305.04
2023-02-19T09:11:51.189Z,98307.73
2023-02-19T09:16:53.644Z,98311.48
2023-02-19T09:21:56.116Z,98320.13
2023-02-19T09:27:01.100Z,98332.68
2023-02-19T09:32:05.789Z,98335.89
2023-02-19T09:37:08.663Z,98336.91
2023-02-19T09:42:18.004Z,98339.41
2023-02-19T09:47:29.556Z,98354.89
2023-02-19T09:52:38.827Z,98367.73
2023-02-19T09:57:43.630Z,98372.01
2023-02-19T10:02:45.893Z,98376.77
2023-02-19T10:07:51.287Z,98388.73
2023-02-19T10:12:56.797Z,98396.88
2023-02-19T10:17:59.044Z,98399.59
2023-02-19T10:23:08.054Z,98401.14
2023-02-19T10:28:23.337Z,98425.02
2023-02-19T10:33:25.739Z,98431.80
2023-02-19T10:38:38.412Z,98438.19
2023-02-19T10:43:45.797Z,98440.38
2023-02-19T10:49:00.621Z,98442.98
2023-02-19T10:54:28.866Z,98456.12
2023-02-19T10:59:58.238Z,98467.98
2023-02-19T11:05:16.912Z,98472.98
2023-02-19T11:10:39.959Z,98484.88
2023-02-19T11:15:43.683Z,98495.41
2023-02-19T11:21:00.972Z,98499.00
2023-02-19T11:26:06.969Z,98504.70
2023-02-19T11:31:23.557Z,98509.31
2023-02-19T11:36:30.487Z,98525.19
2023-02-19T11:41:58.562Z,98534.16
2023-02-19T11:47:13.292Z,98544.95
2023-02-19T11:52:29.057Z,98559.88
2023-02-19T11:57:41.855Z,98560.04
2023-02-19T12:03:06.400Z,98570.83
2023-02-19T12:08:35.768Z,98582.02
2023-02-19T12:13:59.438Z,98588.14
2023-02-19T12:19:27.681Z,98585.23
2023-02-19T12:25:06.252Z,98599.64
2023-02-19T12:30:19.426Z,98618.58
2023-02-19T12:35:43.182Z,98628.30
2023-02-19T12:40:51.262Z,98633.58
2023-02-19T12:45:58.999Z,98645.96
2023-02-19T12:51:23.414Z,98652.70
2023-02-19T12:56:53.705Z,98657.84
2023-02-19T13:02:08.107Z,98664.50
2023-02-19T13:07:33.777Z,98664.27
2023-02-19T13:12:44.901Z,98674.35
2023-02-19T13:17:51.404Z,98683.91
2023-02-19T13:23:41.022Z,98691.06
2023-02-19T13:29:06.913Z,98699.18
2023-02-19T13:34:22.641Z,98707.79
2023-02-19T13:39:25.327Z,98716.14
2023-02-19T13:44:31.058Z,98727.21
2023-02-19T13:49:36.185Z,98736.60
2023-02-19T13:54:42.652Z,98743.91
2023-02-19T13:59:45.411Z,98745.63
2023-02-19T14:04:51.844Z,98757.81
2023-02-19T14:09:55.005Z,98753.82
2023-02-19T14:15:41.593Z,98760.70
2023-02-19T14:20:45.545Z,98766.45
2023-02-19T14:26:01.286Z,98777.44
2023-02-19T14:31:11.959Z,98793.56
2023-02-19T14:36:20.483Z,98798.98
2023-02-19T14:41:24.760Z,98800.73
2023-02-19T14:46:43.318Z,98812.07
2023-02-19T14:51:51.635Z,98818.95
2023-02-19T14:56:54.826Z,98817.36
2023-02-19T15:02:15.299Z,98816.28
2023-02-19T15:07:34.751Z,98818.98
2023-02-19T15:13:01.523Z,98827.45
2023-02-19T15:18:05.612Z,98843.05
2023-02-19T15:23:08.260Z,98839.93
2023-02-19T15:28:26.541Z,98848.38
2023-02-19T15:33:29.566Z,98851.42
2023-02-19T15:38:33.890Z,98864.78
2023-02-19T15:43:49.912Z,98875.79
2023-02-19T15:49:02.454Z,98897.90
2023-02-19T15:54:47.391Z,98901.17
2023-02-19T16:00:13.464Z,98907.06
2023-02-19T16:05:27.572Z,98923.41
2023-02-19T16:10:32.695Z,98933.51
2023-02-19T16:15:40.386Z,98939.59
2023-02-19T16:20:47.881Z,98951.02
2023-02-19T16:26:01.519Z,98955.59
2023-02-19T16:31:05.106Z,98975.63
2023-02-19T16:36:42.541Z,98984.44
2023-02-19T16:41:47.554Z,99004.83
2023-02-19T16:46:52.211Z,99018.66
2023-02-19T16:51:54.687Z,99025.77
2023-02-19T16:56:56.870Z,99032.49
2023-02-19T17:02:05.590Z,99050.65
2023-02-19T17:07:09.527Z,99055.88
2023-02-19T17:12:14.396Z,99066.67
2023-02-19T17:17:16.468Z,99073.34
2023-02-19T17:22:19.236Z,99071.45
2023-02-19T17:27:21.557Z,99079.17
2023-02-19T17:32:23.608Z,99086.64
2023-02-19T17:37:26.490Z,99101.55
2023-02-19T17:42:28.272Z,99116.35
2023-02-19T17:47:30.530Z,99121.48
2023-02-19T17:52:33.672Z,99123.02
2023-02-19T17:57:36.550Z,99128.27
2023-02-19T18:02:39.429Z,99133.04
2023-02-19T18:07:51.380Z,99142.00
2023-02-19T18:12:55.945Z,99154.08
2023-02-19T18:18:00.939Z,99156.21
2023-02-19T18:23:02.990Z,99168.09
2023-02-19T18:28:05.475Z,99168.02
2023-02-19T18:33:10.894Z,99173.36
2023-02-19T18:38:13.721Z,99184.04
2023-02-19T18:43:16.820Z,99188.80
2023-02-19T18:48:19.410Z,99192.80
2023-02-19T18:53:22.105Z,99200.98
2023-02-19T18:58:28.493Z,99206.55
2023-02-19T19:03:32.445Z,99211.87
2023-02-19T19:08:35.132Z,99216.87
2023-02-19T19:13:37.917Z,99222.20
2023-02-19T19:18:39.878Z,99233.13
2023-02-19T19:23:42.617Z,99228.06
2023-02-19T19:28:45.317Z,99232.08
2023-02-19T19:33:48.584Z,99242.98
2023-02-19T19:38:50.853Z,99251.88
2023-02-19T19:43:52.861Z,99247.43
2023-02-19T19:48:55.914Z,99247.30
2023-02-19T19:53:58.419Z,99253.34
2023-02-19T19:59:00.285Z,99249.11
2023-02-19T20:04:08.363Z,99250.79
2023-02-19T20:09:10.571Z,99250.34
2023-02-19T20:14:13.965Z,99252.10
2023-02-19T20:19:17.790Z,99258.60
2023-02-19T20:24:24.598Z,99263.55
2023-02-19T20:29:29.057Z,99268.06
2023-02-19T20:34:31.719Z,99274.22
2023-02-19T20:39:35.464Z,99284.30
2023-02-19T20:44:37.840Z,99289.59
2023-02-19T20:49:45.754Z,99288.71
2023-02-19T20:54:48.225Z,99290.73
2023-02-19T20:59:50.688Z,99297.09
2023-02-19T21:04:52.723Z,99303.34
2023-02-19T21:09:57.803Z,99312.38
2023-02-19T21:15:05.230Z,99329.77
2023-02-19T21:20:08.479Z,99337.55
2023-02-19T21:25:10.850Z,99338.95
2023-02-19T21:30:12.955Z,99347.14
2023-02-19T21:35:15.279Z,99352.30
2023-02-19T21:40:39.255Z,99355.18
2023-02-19T21:45:43.132Z,99367.18
2023-02-19T21:50:45.927Z,99366.00
2023-02-19T21:55:58.139Z,99371.72
2023-02-19T22:01:01.791Z,99374.03
2023-02-19T22:06:04.907Z,99377.35
2023-02-19T22:11:07.403Z,99374.69
2023-02-19T22:16:09.904Z,99380.17
2023-02-19T22:21:12.310Z,99383.75
2023-02-19T22:26:18.737Z,99390.52
2023-02-19T22:31:25.021Z,99389.92
2023-02-19T22:36:31.172Z,99397.67
2023-02-19T22:41:33.893Z,99404.66
2023-02-19T22:46:36.429Z,99402.36
2023-02-19T22:51:39.143Z,99406.95
2023-02-19T22:56:41.594Z,99419.12
2023-02-19T23:01:43.539Z,99425.67
2023-02-19T23:06:45.955Z,99429.19
2023-02-19T23:11:48.496Z,99436.86
2023-02-19T23:16:50.783Z,99438.75
2023-02-19T23:22:07.777Z,99443.20
2023-02-19T23:27:10.195Z,99446.34
2023-02-19T23:32:12.524Z,99443.13
2023-02-19T23:37:15.123Z,99442.30
2023-02-19T23:42:20.372Z,99440.27
2023-02-19T23:47:45.676Z,99436.20
2023-02-19T23:52:48.963Z,99437.88
2023-02-19T23:57:53.256Z,99427.86
